TimeCDT,TemperatureF,Dew PointF,Humidity,Sea Level PressureIn,VisibilityMPH,Wind Direction,Wind SpeedMPH,Gust SpeedMPH,PrecipitationIn,Events,Conditions,WindDirDegrees,DateUTC
12:15 AM,63.3,61.0,92,29.86,10.0,WSW,4.6,-,N/A,,Clear,240,2014-08-16 05:15:00
12:35 AM,65.8,62.6,89,29.85,10.0,WSW,4.6,-,N/A,,Clear,250,2014-08-16 05:35:00
12:55 AM,66.4,62.8,88,29.85,10.0,WSW,3.5,-,N/A,,Clear,250,2014-08-16 05:55:00
1:15 AM,66.6,63.1,89,29.84,10.0,WSW,4.6,-,N/A,,Clear,250,2014-08-16 06:15:00
1:35 AM,66.4,63.1,89,29.84,10.0,WSW,4.6,-,N/A,,Clear,250,2014-08-16 06:35:00
1:55 AM,67.1,63.5,88,29.84,10.0,WSW,4.6,-,N/A,,Scattered Clouds,250,2014-08-16 06:55:00
2:15 AM,67.5,63.5,87,29.84,10.0,West,8.1,-,N/A,,Scattered Clouds,260,2014-08-16 07:15:00
2:35 AM,68.0,63.1,84,29.84,10.0,West,10.4,-,N/A,,Scattered Clouds,270,2014-08-16 07:35:00
2:55 AM,68.2,63.0,83,29.83,10.0,West,8.1,-,N/A,,Scattered Clouds,260,2014-08-16 07:55:00
3:15 AM,68.2,63.0,83,29.83,10.0,West,8.1,-,N/A,Rain,Light Rain,270,2014-08-16 08:15:00
3:35 AM,68.0,63.0,84,29.83,10.0,West,4.6,-,N/A,,Overcast,270,2014-08-16 08:35:00
3:55 AM,67.5,63.5,87,29.82,10.0,WSW,5.8,-,N/A,Rain,Light Rain,250,2014-08-16 08:55:00
4:15 AM,67.1,63.5,88,29.82,10.0,West,3.5,-,N/A,,Overcast,280,2014-08-16 09:15:00
4:35 AM,67.1,63.5,88,29.83,10.0,West,5.8,-,N/A,,Mostly Cloudy,270,2014-08-16 09:35:00
4:55 AM,66.6,63.5,90,29.82,10.0,West,5.8,-,N/A,,Scattered Clouds,270,2014-08-16 09:55:00
5:15 AM,66.6,63.5,90,29.83,10.0,West,4.6,-,N/A,,Scattered Clouds,280,2014-08-16 10:15:00
5:35 AM,66.4,63.5,90,29.83,10.0,West,5.8,-,N/A,,Scattered Clouds,280,2014-08-16 10:35:00
5:55 AM,66.9,63.7,89,29.84,10.0,West,6.9,-,N/A,,Overcast,280,2014-08-16 10:55:00
6:15 AM,67.1,63.7,89,29.85,10.0,West,4.6,-,N/A,,Overcast,280,2014-08-16 11:15:00
6:35 AM,66.7,64.0,91,29.85,10.0,West,3.5,-,N/A,,Overcast,260,2014-08-16 11:35:00
6:55 AM,66.9,64.4,92,29.85,10.0,West,4.6,-,N/A,,Overcast,260,2014-08-16 11:55:00
7:15 AM,67.5,64.4,90,29.85,10.0,West,3.5,-,N/A,,Mostly Cloudy,280,2014-08-16 12:15:00
7:35 AM,67.6,64.6,90,29.86,10.0,WNW,4.6,-,N/A,,Mostly Cloudy,300,2014-08-16 12:35:00
7:55 AM,67.8,64.6,89,29.87,10.0,WNW,4.6,-,N/A,,Overcast,300,2014-08-16 12:55:00
8:15 AM,68.0,64.8,89,29.87,10.0,NNW,4.6,-,N/A,,Overcast,340,2014-08-16 13:15:00
8:35 AM,69.3,64.6,85,29.87,10.0,NW,5.8,-,N/A,,Overcast,310,2014-08-16 13:35:00
8:55 AM,68.9,64.0,84,29.87,10.0,NNW,5.8,-,N/A,,Overcast,330,2014-08-16 13:55:00
9:15 AM,69.8,64.6,83,29.87,10.0,Calm,Calm,-,N/A,,Overcast,0,2014-08-16 14:15:00
9:35 AM,69.1,64.2,84,29.88,10.0,North,4.6,-,N/A,,Overcast,350,2014-08-16 14:35:00
9:55 AM,69.8,64.0,82,29.87,10.0,North,4.6,-,N/A,,Overcast,350,2014-08-16 14:55:00
10:15 AM,70.0,63.9,81,29.88,10.0,North,4.6,-,N/A,,Overcast,350,2014-08-16 15:15:00
10:35 AM,70.2,63.3,79,29.89,10.0,North,6.9,-,N/A,,Overcast,350,2014-08-16 15:35:00
10:55 AM,70.0,62.8,78,29.89,10.0,NNW,5.8,-,N/A,,Overcast,340,2014-08-16 15:55:00
11:15 AM,70.0,62.8,78,29.90,10.0,North,5.8,-,N/A,,Overcast,350,2014-08-16 16:15:00
11:35 AM,69.1,62.8,80,29.91,10.0,North,8.1,-,N/A,,Overcast,10,2014-08-16 16:35:00
11:55 AM,68.2,62.2,81,29.91,10.0,North,8.1,-,N/A,,Overcast,10,2014-08-16 16:55:00
12:15 PM,69.1,62.2,79,29.91,10.0,North,8.1,-,N/A,,Overcast,350,2014-08-16 17:15:00
12:35 PM,69.4,61.5,76,29.92,10.0,NNW,6.9,-,N/A,,Overcast,330,2014-08-16 17:35:00
12:55 PM,69.4,61.2,75,29.92,10.0,NNE,6.9,-,N/A,,Overcast,20,2014-08-16 17:55:00
1:15 PM,69.4,60.6,73,29.92,10.0,North,9.2,-,N/A,,Overcast,10,2014-08-16 18:15:00
1:35 PM,69.6,60.3,72,29.92,10.0,NNE,8.1,-,N/A,,Overcast,20,2014-08-16 18:35:00
1:55 PM,70.7,59.4,67,29.92,10.0,NNE,8.1,-,N/A,,Overcast,20,2014-08-16 18:55:00
2:15 PM,72.0,59.4,64,29.92,10.0,North,6.9,-,N/A,,Overcast,350,2014-08-16 19:15:00
2:35 PM,71.4,59.0,65,29.93,10.0,North,4.6,-,N/A,,Overcast,360,2014-08-16 19:35:00
2:55 PM,70.2,59.5,69,29.94,10.0,NNE,9.2,-,N/A,,Overcast,20,2014-08-16 19:55:00
3:15 PM,70.2,59.4,69,29.94,10.0,NNE,9.2,-,N/A,,Overcast,30,2014-08-16 20:15:00
3:35 PM,70.7,59.4,67,29.94,10.0,NNE,10.4,-,N/A,,Overcast,30,2014-08-16 20:35:00
3:55 PM,70.5,59.0,67,29.94,10.0,NNE,8.1,-,N/A,,Overcast,20,2014-08-16 20:55:00
4:15 PM,71.4,59.2,65,29.95,10.0,North,8.1,-,N/A,,Mostly Cloudy,360,2014-08-16 21:15:00
4:35 PM,72.5,59.4,63,29.94,10.0,North,4.6,-,N/A,,Mostly Cloudy,350,2014-08-16 21:35:00
4:55 PM,72.5,58.6,62,29.94,10.0,North,8.1,-,N/A,,Mostly Cloudy,10,2014-08-16 21:55:00
5:15 PM,72.7,58.8,62,29.94,10.0,NNE,6.9,-,N/A,,Scattered Clouds,30,2014-08-16 22:15:00
5:35 PM,70.3,58.8,67,29.95,10.0,North,6.9,-,N/A,,Scattered Clouds,10,2014-08-16 22:35:00
5:55 PM,68.9,59.0,71,29.96,10.0,NNE,5.8,-,N/A,,Scattered Clouds,30,2014-08-16 22:55:00
6:15 PM,69.6,58.1,67,29.96,10.0,NNE,8.1,-,N/A,,Clear,30,2014-08-16 23:15:00
6:35 PM,68.7,58.1,69,29.97,10.0,NE,8.1,-,N/A,,Scattered Clouds,50,2014-08-16 23:35:00
6:55 PM,67.1,58.1,73,29.98,10.0,NE,8.1,-,N/A,,Mostly Cloudy,50,2014-08-16 23:55:00
7:15 PM,65.3,57.9,77,29.98,10.0,NE,6.9,-,N/A,,Mostly Cloudy,40,2014-08-17 00:15:00
7:35 PM,64.2,57.4,78,29.99,10.0,NE,5.8,-,N/A,,Scattered Clouds,40,2014-08-17 00:35:00
7:55 PM,62.6,57.2,82,30.00,10.0,NE,4.6,-,N/A,,Clear,50,2014-08-17 00:55:00
8:15 PM,61.2,56.7,85,29.99,10.0,NE,5.8,-,N/A,,Clear,40,2014-08-17 01:15:00
8:35 PM,60.6,56.3,86,30.00,10.0,NE,4.6,-,N/A,,Clear,40,2014-08-17 01:35:00
8:55 PM,59.4,56.5,90,30.00,10.0,NE,3.5,-,N/A,,Clear,40,2014-08-17 01:55:00
9:15 PM,59.0,56.1,90,30.01,10.0,Calm,Calm,-,N/A,,Clear,0,2014-08-17 02:15:00
9:35 PM,56.5,54.0,91,30.02,10.0,Calm,Calm,-,N/A,,Clear,0,2014-08-17 02:35:00
9:55 PM,56.7,55.4,96,30.03,10.0,NE,3.5,-,N/A,,Clear,40,2014-08-17 02:55:00
10:15 PM,56.5,54.9,94,30.03,10.0,NNE,4.6,-,N/A,,Clear,20,2014-08-17 03:15:00
10:35 PM,56.3,54.5,94,30.03,10.0,Calm,Calm,-,N/A,,Clear,0,2014-08-17 03:35:00
10:55 PM,55.0,53.8,96,30.04,10.0,NNE,4.6,-,N/A,,Clear,20,2014-08-17 03:55:00
11:15 PM,55.4,54.5,97,30.04,10.0,NNE,3.5,-,N/A,,Clear,30,2014-08-17 04:15:00
11:35 PM,53.1,51.6,95,30.04,10.0,Calm,Calm,-,N/A,,Clear,0,2014-08-17 04:35:00
11:55 PM,52.3,52.0,99,30.05,5.0,NE,3.5,-,N/A,,Scattered Clouds,40,2014-08-17 04:55:00